Union City, NJ

7:45 AM EDT en Noviembre 01, 2014 (GMT -0400)
WCBS TELEVISION | Change Station
CLOSE
Current Station
Estación meteorológica personal
Location: New York, NY
Altura: 13 ft
Estaciones meteorológicas cercanas

Alt 13 ft 40.77 °N, 73.99 °W | Updated 1 second ago

Lluvia
Lluvia
48.0 ° F
Sensación térmica 47 ° F
N
3.1
Viento Variable Viento desde Este
Gusts 3.1 mph

Hoy
Alta -- | Baja -- ° F
--% Posibilidad de precipitaciones
Ayer
Alta -- | Baja -- ° F
Precip. -- pul
7:26 AM 5:52 PM
Gibosa creciente, 65% visible
Presión 29.82 pul
Visibilidad 10.0 Millas
Nubes Nublado 5500 ft
Vientos helados 47 ° F
Punto de rocío 42 ° F
Humedad 80%
Precipitaciones 0.06 pul
Espesor de la nieve No disponible.
UV 0 de una escala de 12
Polen .10 de una escala de 12
Calidad del aire No disponible.
Flu Activity No disponible.
METAR KNYC 011051Z AUTO 03008G14KT 340V070 10SM -RA OVC055 07/04 A2985 RMK AO2 SLP098 P0002 T00720039 $

More Conditions Fewer Conditions

Presión 29.82 pul
Visibilidad 10.0 Millas
Nubes Nublado 5500 ft
Vientos helados 47 ° F
Punto de rocío 42 ° F
Humedad 80%
Precipitaciones 0.06 pul
Espesor de la nieve No disponible.
UV 0 de una escala de 12
Polen .10 de una escala de 12
Calidad del aire No disponible.
Flu Activity No disponible.
METAR KNYC 011051Z AUTO 03008G14KT 340V070 10SM -RA OVC055 07/04 A2985 RMK AO2 SLP098 P0002 T00720039 $

More Conditions Fewer Conditions

10-Day Weather Forecast

Almanac

Astronomía

Nov. 01, 2014 Salida Puesta
Hora real
Crepúsculo civil
Crepúsculo náutico
Crepúsculo astronómico
Luna
Horas de luz
Horas de luz
Tomorrow will be .
, % of the Moon is Illuminated

Extremos de hoy

Máximos del estado Bajos del estado

Community

WunderPhotos

Upload Photos

1,766,903 ¡fotos cargadas!

WunderBlogs® & News

Nearby

Calidad del aire

  Calidad del aire Índice AQ Contaminante
Not available.

Grosos de nieve

Estación Profundido Altura

Actividad de terremotos

Ciudad Distance Mag. Tiempo y dato
Magnitud mínima muestra es 2,5.

Temperaturas de aguas costeras

Lugar Temperatura

Estaciones meteorológicas cercanas